Providence, Utah
Current Conditions -  °F | °C
As of 4:51 AM on Monday 24 Nov 2014 (Local Time) from KLGU Reporting Station
Overcast Overcast  
Wind Chill: 30°   Ceiling: 5500
Heat Index: 34°   Visibility: 10mi
Dew Point: 24°   Wind: 5mph
Humidity: 67%   Direction: 310°NW
Pressure: 30.16"   Gusts: NA
Location:  41.71°N, 111.82°W
Report Text: KLGU 241151Z AUTO 31004KT 10SM BKN055 OVC080 01/M04 A3016 RMK AO2 SNE17 SLP224 P0000 60000 70001 T00111044 10028 20011 53002
Loading
Personal Weather Stations






























Interactive Weather Map New forecast layout! Learn more

10-Day Weather Forecast

Advertisements
Track Severe Weather on mobile